createdAt,value
2018-06-23T00:02:21.343Z,2.13
2018-06-23T00:04:50.101Z,1.83
2018-06-23T00:07:18.172Z,2.27
2018-06-23T00:09:46.893Z,1.80
2018-06-23T00:12:15.894Z,1.63
2018-06-23T00:14:44.353Z,1.80
2018-06-23T00:17:12.508Z,1.80
2018-06-23T00:19:41.127Z,1.60
2018-06-23T00:22:09.250Z,1.47
2018-06-23T00:24:37.440Z,1.97
2018-06-23T00:27:06.101Z,1.93
2018-06-23T00:29:34.282Z,1.67
2018-06-23T00:32:03.121Z,2.13
2018-06-23T00:34:31.802Z,1.37
2018-06-23T00:37:00.127Z,1.73
2018-06-23T00:39:28.057Z,1.50
2018-06-23T00:41:56.214Z,1.87
2018-06-23T00:44:24.587Z,2.07
2018-06-23T00:46:53.082Z,1.70
2018-06-23T00:49:21.719Z,1.53
2018-06-23T00:51:49.970Z,1.23
2018-06-23T00:54:18.234Z,1.63
2018-06-23T00:56:47.214Z,2.00
2018-06-23T00:59:27.171Z,1.93
2018-06-23T01:01:55.257Z,1.90
2018-06-23T01:04:23.565Z,2.00
2018-06-23T01:06:52.382Z,2.03
2018-06-23T01:09:20.450Z,1.27
2018-06-23T01:11:49.471Z,2.17
2018-06-23T01:14:18.848Z,2.03
2018-06-23T01:16:47.050Z,1.97
2018-06-23T01:19:15.255Z,1.70
2018-06-23T01:21:43.509Z,1.70
2018-06-23T01:24:11.958Z,1.67
2018-06-23T01:26:41.590Z,1.23
2018-06-23T01:29:09.761Z,2.63
2018-06-23T01:31:38.525Z,1.30
2018-06-23T01:34:07.006Z,1.23
2018-06-23T01:36:35.816Z,1.10
2018-06-23T01:39:06.668Z,1.40
2018-06-23T01:41:35.933Z,1.30
2018-06-23T01:44:04.324Z,1.20
2018-06-23T01:46:33.028Z,1.20
2018-06-23T01:49:01.219Z,1.00
2018-06-23T01:51:30.023Z,1.00
2018-06-23T01:53:58.348Z,1.10
2018-06-23T01:56:27.153Z,0.97
2018-06-23T01:58:55.398Z,1.13
2018-06-23T02:01:24.577Z,0.80
2018-06-23T02:03:52.585Z,0.63
2018-06-23T02:06:21.053Z,0.90
2018-06-23T02:08:49.230Z,0.90
2018-06-23T02:11:18.681Z,0.70
2018-06-23T02:13:47.293Z,0.57
2018-06-23T02:16:21.527Z,1.12
2018-06-23T02:18:55.465Z,0.70
2018-06-23T02:21:29.118Z,1.27
2018-06-23T02:25:02.958Z,0.80
2018-06-23T02:27:36.722Z,0.70
2018-06-23T02:30:10.222Z,0.77
2018-06-23T02:32:46.170Z,1.10
2018-06-23T02:35:14.981Z,0.97
2018-06-23T02:37:43.046Z,0.90
2018-06-23T02:40:10.966Z,1.17
2018-06-23T02:42:39.021Z,0.77
2018-06-23T02:45:07.622Z,1.00
2018-06-23T02:47:36.214Z,0.90
2018-06-23T02:50:04.614Z,0.90
2018-06-23T02:52:33.029Z,0.80
2018-06-23T02:55:01.338Z,1.10
2018-06-23T02:57:30.345Z,1.10
2018-06-23T02:59:59.838Z,1.33
2018-06-23T03:02:28.121Z,0.83
2018-06-23T03:04:57.121Z,1.13
2018-06-23T03:07:25.321Z,0.97
2018-06-23T03:09:53.418Z,1.10
2018-06-23T03:12:21.806Z,1.00
2018-06-23T03:14:50.403Z,1.17
2018-06-23T03:17:20.246Z,1.17
2018-06-23T03:19:50.790Z,1.33
2018-06-23T03:22:20.498Z,1.10
2018-06-23T03:24:49.477Z,1.20
2018-06-23T03:27:19.593Z,1.43
2018-06-23T03:29:47.842Z,1.20
2018-06-23T03:32:16.406Z,1.70
2018-06-23T03:34:45.561Z,1.03
2018-06-23T03:37:13.661Z,1.17
2018-06-23T03:39:42.301Z,1.20
2018-06-23T03:42:10.473Z,0.77
2018-06-23T03:44:39.334Z,1.20
2018-06-23T03:47:07.520Z,0.90
2018-06-23T03:49:35.581Z,0.83
2018-06-23T03:52:04.046Z,1.00
2018-06-23T03:54:32.238Z,1.13
2018-06-23T03:57:00.445Z,0.87
2018-06-23T03:59:28.793Z,1.23
2018-06-23T04:01:56.953Z,1.20
2018-06-23T04:04:25.287Z,1.00
2018-06-23T04:06:53.506Z,1.23
2018-06-23T04:09:21.705Z,1.10
2018-06-23T04:11:50.095Z,1.30
2018-06-23T04:14:18.345Z,2.10
2018-06-23T04:16:47.234Z,1.30
2018-06-23T04:19:15.307Z,1.30
2018-06-23T04:21:44.201Z,1.60
2018-06-23T04:24:12.889Z,1.70
2018-06-23T04:26:41.551Z,1.63
2018-06-23T04:29:09.850Z,2.20
2018-06-23T04:31:38.510Z,1.83
2018-06-23T04:34:07.276Z,1.43
2018-06-23T04:36:35.394Z,1.63
2018-06-23T04:39:05.514Z,1.90
2018-06-23T04:41:33.594Z,1.73
2018-06-23T04:44:01.702Z,1.50
2018-06-23T04:46:31.222Z,1.53
2018-06-23T04:49:00.122Z,1.40
2018-06-23T04:51:28.490Z,1.60
2018-06-23T04:53:57.871Z,1.53
2018-06-23T04:56:26.189Z,2.17
2018-06-23T04:58:55.083Z,1.53
2018-06-23T05:01:24.000Z,1.60
2018-06-23T05:03:52.354Z,1.70
2018-06-23T05:06:20.958Z,1.50
2018-06-23T05:08:49.061Z,1.40
2018-06-23T05:11:19.188Z,1.37
2018-06-23T05:13:47.609Z,1.43
2018-06-23T05:16:15.738Z,1.60
2018-06-23T05:18:44.189Z,1.40
2018-06-23T05:21:12.409Z,1.40
2018-06-23T05:23:40.885Z,1.50
2018-06-23T05:26:09.009Z,1.33
2018-06-23T05:28:37.082Z,1.07
2018-06-23T05:31:06.144Z,1.20
2018-06-23T05:33:34.258Z,1.00
2018-06-23T05:36:02.454Z,1.30
2018-06-23T05:38:31.051Z,1.20
2018-06-23T05:40:59.121Z,1.10
2018-06-23T05:43:27.325Z,1.10
2018-06-23T05:45:55.616Z,1.10
2018-06-23T05:48:23.996Z,1.10
2018-06-23T05:50:52.149Z,1.00
2018-06-23T05:53:20.929Z,0.93
2018-06-23T05:55:50.039Z,1.13
2018-06-23T05:58:17.993Z,1.03
2018-06-23T06:00:46.248Z,1.53
2018-06-23T06:03:14.316Z,1.27
2018-06-23T06:05:42.513Z,1.30
2018-06-23T06:08:10.677Z,1.10
2018-06-23T06:10:39.494Z,0.90
2018-06-23T06:13:07.562Z,1.03
2018-06-23T06:15:35.738Z,1.00
2018-06-23T06:18:04.064Z,1.10
2018-06-23T06:20:32.995Z,0.80
2018-06-23T06:23:01.834Z,0.97
2018-06-23T06:25:29.841Z,0.70
2018-06-23T06:27:59.262Z,1.17
2018-06-23T06:30:27.438Z,1.20
2018-06-23T06:32:56.285Z,1.17
2018-06-23T06:35:24.566Z,1.47
2018-06-23T06:37:53.157Z,1.33
2018-06-23T06:40:21.645Z,1.30
2018-06-23T06:42:49.809Z,1.20
2018-06-23T06:45:18.014Z,1.23
2018-06-23T06:47:46.717Z,0.93
2018-06-23T06:50:15.672Z,1.33
2018-06-23T06:52:43.998Z,1.60
2018-06-23T06:55:12.111Z,1.17
2018-06-23T06:57:40.478Z,1.80
2018-06-23T07:00:08.586Z,1.47
2018-06-23T07:02:36.952Z,1.10
2018-06-23T07:05:05.196Z,1.30
2018-06-23T07:07:34.037Z,1.30
2018-06-23T07:10:02.219Z,1.50
2018-06-23T07:12:30.301Z,1.30
2018-06-23T07:14:59.014Z,1.30
2018-06-23T07:17:26.938Z,1.80
2018-06-23T07:19:55.085Z,1.50
2018-06-23T07:22:24.062Z,1.83
2018-06-23T07:24:52.325Z,1.50
2018-06-23T07:27:20.265Z,1.20
2018-06-23T07:29:48.917Z,1.50
2018-06-23T07:32:17.373Z,1.67
2018-06-23T07:34:46.565Z,1.27
2018-06-23T07:37:15.293Z,1.47
2018-06-23T07:39:44.011Z,1.50
2018-06-23T07:42:12.078Z,0.97
2018-06-23T07:44:40.222Z,1.33
2018-06-23T07:47:08.474Z,1.30
2018-06-23T07:49:36.658Z,1.47
2018-06-23T07:52:05.335Z,1.60
2018-06-23T07:54:33.581Z,1.37
2018-06-23T07:57:01.648Z,1.57
2018-06-23T07:59:30.150Z,1.60
2018-06-23T08:01:58.014Z,1.87
2018-06-23T08:04:25.938Z,1.90
2018-06-23T08:06:54.070Z,1.60
2018-06-23T08:09:22.181Z,1.30
2018-06-23T08:11:50.482Z,1.80
2018-06-23T08:14:18.565Z,1.65
2018-06-23T08:16:47.318Z,1.70
2018-06-23T08:19:16.032Z,1.47
2018-06-23T08:21:44.806Z,1.65
2018-06-23T08:24:13.466Z,2.02
2018-06-23T08:26:42.103Z,1.72
2018-06-23T08:29:09.781Z,2.05
2018-06-23T08:31:37.629Z,1.90
2018-06-23T08:34:06.325Z,2.15
2018-06-23T08:36:34.774Z,1.93
2018-06-23T08:39:02.870Z,1.50
2018-06-23T08:41:31.123Z,1.67
2018-06-23T08:43:59.459Z,1.47
2018-06-23T08:46:27.658Z,1.33
2018-06-23T08:48:56.415Z,1.27
2018-06-23T08:51:24.674Z,1.20
2018-06-23T08:53:52.817Z,1.60
2018-06-23T08:56:22.421Z,1.37
2018-06-23T08:58:51.430Z,1.50
2018-06-23T09:01:20.031Z,1.30
2018-06-23T09:03:48.661Z,1.80
2018-06-23T09:06:16.766Z,1.93
2018-06-23T09:08:45.418Z,2.27
2018-06-23T09:11:13.925Z,1.87
2018-06-23T09:13:42.698Z,1.30
2018-06-23T09:16:10.771Z,1.47
2018-06-23T09:18:38.993Z,1.40
2018-06-23T09:21:06.929Z,1.42
2018-06-23T09:23:35.165Z,2.00
2018-06-23T09:26:03.891Z,2.03
2018-06-23T09:28:32.046Z,1.90
2018-06-23T09:31:01.081Z,2.10
2018-06-23T09:33:29.549Z,2.10
2018-06-23T09:35:57.605Z,2.50
2018-06-23T09:38:27.483Z,3.13
2018-06-23T09:40:55.405Z,2.43
2018-06-23T09:43:23.653Z,1.80
2018-06-23T09:45:52.299Z,2.13
2018-06-23T09:49:49.938Z,2.23
2018-06-23T09:52:18.098Z,1.80
2018-06-23T09:54:46.898Z,1.75
2018-06-23T09:57:16.540Z,1.60
2018-06-23T09:59:44.656Z,1.87
2018-06-23T10:02:13.555Z,2.15
2018-06-23T10:04:41.886Z,1.60
2018-06-23T10:07:09.870Z,1.75
2018-06-23T10:09:38.110Z,1.63
2018-06-23T10:12:06.270Z,1.87
2018-06-23T10:14:34.468Z,2.17
2018-06-23T10:17:03.609Z,2.40
2018-06-23T10:19:32.547Z,1.87
2018-06-23T10:22:00.694Z,1.93
2018-06-23T10:24:29.164Z,1.30
2018-06-23T10:26:57.395Z,1.00
2018-06-23T10:29:25.498Z,1.30
2018-06-23T10:31:54.563Z,0.98
2018-06-23T10:34:22.742Z,1.45
2018-06-23T10:36:51.437Z,1.62
2018-06-23T10:39:20.578Z,1.65
2018-06-23T10:41:49.094Z,1.30
2018-06-23T10:44:17.222Z,1.67
2018-06-23T10:46:45.738Z,1.90
2018-06-23T10:49:14.457Z,1.90
2018-06-23T10:51:42.426Z,1.70
2018-06-23T10:54:10.517Z,2.33
2018-06-23T10:56:39.073Z,2.00
2018-06-23T10:59:07.222Z,2.33
2018-06-23T11:01:35.726Z,2.10
2018-06-23T11:04:04.641Z,1.40
2018-06-23T11:06:32.871Z,1.63
2018-06-23T11:09:01.528Z,2.07
2018-06-23T11:11:30.245Z,1.93
2018-06-23T11:13:59.162Z,2.10
2018-06-23T11:16:27.698Z,1.70
2018-06-23T11:18:56.626Z,2.20
2018-06-23T11:21:25.074Z,1.90
2018-06-23T11:23:54.341Z,1.60
2018-06-23T11:26:22.317Z,1.67
2018-06-23T11:28:50.594Z,1.70
2018-06-23T11:31:18.969Z,1.67
2018-06-23T11:33:47.497Z,1.73
2018-06-23T11:36:15.642Z,1.60
2018-06-23T11:38:44.382Z,1.83
2018-06-23T11:41:12.546Z,1.43
2018-06-23T11:43:41.319Z,1.57
2018-06-23T11:46:11.325Z,1.10
2018-06-23T11:48:39.597Z,1.20
2018-06-23T11:51:08.433Z,1.30
2018-06-23T11:53:37.458Z,1.17
2018-06-23T11:56:05.869Z,1.10
2018-06-23T11:58:33.986Z,1.30
2018-06-23T12:01:02.938Z,0.97
2018-06-23T12:03:31.102Z,1.47
2018-06-23T12:05:59.306Z,1.47
2018-06-23T12:08:27.653Z,2.13
2018-06-23T12:10:56.338Z,2.13
2018-06-23T12:13:25.134Z,2.00
2018-06-23T12:15:53.294Z,1.83
2018-06-23T12:18:21.584Z,1.60
2018-06-23T12:20:50.881Z,1.83
2018-06-23T12:23:18.949Z,1.83
2018-06-23T12:25:48.038Z,2.50
2018-06-23T12:28:17.062Z,1.63
2018-06-23T12:30:45.890Z,2.20
2018-06-23T12:33:14.006Z,2.00
2018-06-23T12:35:42.922Z,1.83
2018-06-23T12:38:11.917Z,2.30
2018-06-23T12:40:40.380Z,2.17
2018-06-23T12:43:09.710Z,2.57
2018-06-23T12:45:38.379Z,2.37
2018-06-23T12:48:06.554Z,2.10
2018-06-23T12:50:35.497Z,1.70
2018-06-23T12:53:04.325Z,2.00
2018-06-23T12:55:33.115Z,2.10
2018-06-23T12:58:01.470Z,1.70
2018-06-23T13:00:29.649Z,1.70
2018-06-23T13:02:58.134Z,1.80
2018-06-23T13:05:26.690Z,1.77
2018-06-23T13:07:54.594Z,1.80
2018-06-23T13:10:22.669Z,2.27
2018-06-23T13:12:51.505Z,2.40
2018-06-23T13:15:19.942Z,2.23
2018-06-23T13:17:49.558Z,1.63
2018-06-23T13:20:18.743Z,2.00
2018-06-23T13:22:46.907Z,2.07
2018-06-23T13:25:15.118Z,1.80
2018-06-23T13:27:43.277Z,2.50
2018-06-23T13:30:11.654Z,2.40
2018-06-23T13:32:40.661Z,2.30
2018-06-23T13:35:08.726Z,2.10
2018-06-23T13:37:36.910Z,2.33
2018-06-23T13:40:05.083Z,1.87
2018-06-23T13:42:34.084Z,1.80
2018-06-23T13:45:02.235Z,2.00
2018-06-23T13:47:31.022Z,1.77
2018-06-23T13:49:59.246Z,2.03
2018-06-23T13:52:28.113Z,1.90
2018-06-23T13:54:56.295Z,1.83
2018-06-23T13:57:24.891Z,1.80
2018-06-23T13:59:53.582Z,2.47
2018-06-23T14:02:22.550Z,2.00
2018-06-23T14:04:51.648Z,2.23
2018-06-23T14:07:20.589Z,2.40
2018-06-23T14:09:49.325Z,1.77
2018-06-23T14:12:18.150Z,2.33
2018-06-23T14:14:46.641Z,2.30
2018-06-23T14:17:14.759Z,2.20
2018-06-23T14:19:42.816Z,2.40
2018-06-23T14:22:11.034Z,2.60
2018-06-23T14:24:39.382Z,2.70
2018-06-23T14:27:08.093Z,2.23
2018-06-23T14:29:36.222Z,2.70
2018-06-23T14:32:05.662Z,2.80
2018-06-23T14:34:33.729Z,2.70
2018-06-23T14:37:04.870Z,2.30
2018-06-23T14:39:33.213Z,2.20
2018-06-23T14:42:01.478Z,2.03
2018-06-23T14:44:29.420Z,2.60
2018-06-23T14:46:57.538Z,2.70
2018-06-23T14:49:26.254Z,3.10
2018-06-23T14:51:54.742Z,3.27
2018-06-23T14:54:23.506Z,3.10
2018-06-23T14:56:51.613Z,2.67
2018-06-23T14:59:19.685Z,2.73
2018-06-23T15:01:48.497Z,2.37
2018-06-23T15:04:16.653Z,2.57
2018-06-23T15:06:45.634Z,2.77
2018-06-23T15:10:28.963Z,2.73
2018-06-23T15:13:09.237Z,3.03
2018-06-23T15:15:37.398Z,2.60
2018-06-23T15:18:05.502Z,2.83
2018-06-23T15:20:34.364Z,3.00
2018-06-23T15:23:02.512Z,3.43
2018-06-23T15:25:30.717Z,3.37
2018-06-23T15:27:58.984Z,3.27
2018-06-23T15:30:26.953Z,2.60
2018-06-23T15:32:55.169Z,2.70
2018-06-23T15:35:23.441Z,3.13
2018-06-23T15:37:51.781Z,3.20
2018-06-23T15:40:20.018Z,3.67
2018-06-23T15:42:48.577Z,3.63
2018-06-23T15:45:17.058Z,3.37
2018-06-23T15:47:45.862Z,3.63
2018-06-23T15:50:14.149Z,3.37
2018-06-23T15:52:42.877Z,3.20
2018-06-23T15:55:11.022Z,3.60
2018-06-23T15:57:39.194Z,3.70
2018-06-23T16:00:08.278Z,3.57
2018-06-23T16:02:36.149Z,3.43
2018-06-23T16:05:04.498Z,3.20
2018-06-23T16:07:32.941Z,3.13
2018-06-23T16:10:01.168Z,3.63
2018-06-23T16:12:29.389Z,3.20
2018-06-23T16:14:58.030Z,4.00
2018-06-23T16:17:27.270Z,3.50
2018-06-23T16:19:55.573Z,3.70
2018-06-23T16:22:24.317Z,3.20
2018-06-23T16:24:53.169Z,3.43
2018-06-23T16:27:21.895Z,3.97
2018-06-23T16:29:50.598Z,3.93
2018-06-23T16:32:18.655Z,3.70
2018-06-23T16:34:46.911Z,3.97
2018-06-23T16:37:15.226Z,4.77
2018-06-23T16:39:43.486Z,4.27
2018-06-23T16:42:11.865Z,4.00
2018-06-23T16:44:40.366Z,3.77
2018-06-23T16:47:08.729Z,4.10
2018-06-23T16:49:36.962Z,3.80
2018-06-23T16:52:05.258Z,3.67
2018-06-23T16:54:33.286Z,4.43
2018-06-23T16:57:01.741Z,3.30
2018-06-23T16:59:29.939Z,3.50
2018-06-23T17:01:58.132Z,4.00
2018-06-23T17:04:26.403Z,3.93
2018-06-23T17:06:54.778Z,4.00
2018-06-23T17:09:23.065Z,3.80
2018-06-23T17:11:52.093Z,3.53
2018-06-23T17:14:20.505Z,4.30
2018-06-23T17:16:49.058Z,3.00
2018-06-23T17:19:17.498Z,3.63
2018-06-23T17:21:45.934Z,3.80
2018-06-23T17:24:14.129Z,3.70
2018-06-23T17:26:42.913Z,3.37
2018-06-23T17:29:10.981Z,3.33
2018-06-23T17:31:39.259Z,3.43
2018-06-23T17:34:08.113Z,3.47
2018-06-23T17:36:36.211Z,4.00
2018-06-23T17:39:07.350Z,3.93
2018-06-23T17:41:35.974Z,3.80
2018-06-23T17:44:04.325Z,4.10
2018-06-23T17:46:32.389Z,3.97
2018-06-23T17:49:00.678Z,4.60
2018-06-23T17:51:29.786Z,4.17
2018-06-23T17:53:58.391Z,4.00
2018-06-23T17:56:26.989Z,3.67
2018-06-23T17:58:55.051Z,3.50
2018-06-23T18:01:23.153Z,3.90
2018-06-23T18:03:51.189Z,4.27
2018-06-23T18:06:19.564Z,3.47
2018-06-23T18:08:47.715Z,3.50
2018-06-23T18:11:16.090Z,3.50
2018-06-23T18:13:44.764Z,3.23
2018-06-23T18:16:12.842Z,3.00
2018-06-23T18:18:41.054Z,3.77
2018-06-23T18:21:09.733Z,3.77
2018-06-23T18:23:38.002Z,3.60
2018-06-23T18:26:06.078Z,3.70
2018-06-23T18:28:34.440Z,3.57
2018-06-23T18:31:02.978Z,3.70
2018-06-23T18:33:30.925Z,3.70
2018-06-23T18:35:59.682Z,3.70
2018-06-23T18:38:27.798Z,3.50
2018-06-23T18:40:57.093Z,3.50
2018-06-23T18:43:28.837Z,4.27
2018-06-23T18:45:57.295Z,4.10
2018-06-23T18:48:25.469Z,3.97
2018-06-23T18:50:54.053Z,4.70
2018-06-23T18:53:22.110Z,4.30
2018-06-23T18:55:50.365Z,3.67
2018-06-23T18:58:19.097Z,3.70
2018-06-23T19:00:47.707Z,4.20
2018-06-23T19:03:16.265Z,4.07
2018-06-23T19:05:45.167Z,4.33
2018-06-23T19:08:13.514Z,3.97
2018-06-23T19:10:42.441Z,4.23
2018-06-23T19:13:11.561Z,4.00
2018-06-23T19:15:39.670Z,3.93
2018-06-23T19:18:08.578Z,4.23
2018-06-23T19:20:36.778Z,3.93
2018-06-23T19:23:04.886Z,4.20
2018-06-23T19:25:32.837Z,3.73
2018-06-23T19:28:01.029Z,4.43
2018-06-23T19:30:29.163Z,3.53
2018-06-23T19:34:26.554Z,3.90
2018-06-23T19:36:55.266Z,4.17
2018-06-23T19:39:23.916Z,3.93
2018-06-23T19:41:52.258Z,4.90
2018-06-23T19:44:21.245Z,4.63
2018-06-23T19:46:49.245Z,5.40
2018-06-23T19:49:17.626Z,4.73
2018-06-23T19:51:46.002Z,5.33
2018-06-23T19:54:14.149Z,5.33
2018-06-23T19:56:42.438Z,5.40
2018-06-23T19:59:10.525Z,5.73
2018-06-23T20:01:38.721Z,5.10
2018-06-23T20:04:07.402Z,5.13
2018-06-23T20:06:35.702Z,4.77
2018-06-23T20:09:05.661Z,5.30
2018-06-23T20:11:33.858Z,4.87
2018-06-23T20:14:02.014Z,8.33
2018-06-23T20:16:30.249Z,6.40
2018-06-23T20:18:58.493Z,5.17
2018-06-23T20:21:26.685Z,5.70
2018-06-23T20:23:54.811Z,5.60
2018-06-23T20:26:23.754Z,5.43
2018-06-23T20:28:51.811Z,5.40
2018-06-23T20:31:20.130Z,5.23
2018-06-23T20:33:48.431Z,5.10
2018-06-23T20:36:17.266Z,5.37
2018-06-23T20:38:45.422Z,5.30
2018-06-23T20:41:14.141Z,5.53
2018-06-23T20:43:41.977Z,5.77
2018-06-23T20:46:10.043Z,5.37
2018-06-23T20:48:38.221Z,5.60
2018-06-23T20:51:06.302Z,5.57
2018-06-23T20:53:34.438Z,4.73
2018-06-23T20:56:02.700Z,5.20
2018-06-23T20:58:31.511Z,12.60
2018-06-23T21:00:59.677Z,12.87
2018-06-23T21:03:28.158Z,6.60
2018-06-23T21:05:56.497Z,4.57
2018-06-23T21:08:25.260Z,5.17
2018-06-23T21:10:54.182Z,5.30
2018-06-23T21:13:22.164Z,5.73
2018-06-23T21:15:50.475Z,4.67
2018-06-23T21:18:18.683Z,5.33
2018-06-23T21:20:47.151Z,5.40
2018-06-23T21:23:15.582Z,4.87
2018-06-23T21:25:44.278Z,5.10
2018-06-23T21:28:12.359Z,4.20
2018-06-23T21:30:40.609Z,4.67
2018-06-23T21:33:09.338Z,5.30
2018-06-23T21:35:37.702Z,4.37
2018-06-23T21:38:06.306Z,4.30
2018-06-23T21:40:35.042Z,4.37
2018-06-23T21:43:02.943Z,4.47
2018-06-23T21:45:32.371Z,5.07
2018-06-23T21:48:01.023Z,4.70
2018-06-23T21:50:29.256Z,4.80
2018-06-23T21:52:58.019Z,4.50
2018-06-23T21:55:26.193Z,4.57
2018-06-23T21:57:54.706Z,4.27
2018-06-23T22:00:31.201Z,4.20
2018-06-23T22:03:00.269Z,4.53
2018-06-23T22:05:28.904Z,3.97
2018-06-23T22:07:57.443Z,4.57
2018-06-23T22:10:26.006Z,3.73
2018-06-23T22:12:54.199Z,4.70
2018-06-23T22:15:22.109Z,4.30
2018-06-23T22:17:50.570Z,4.33
2018-06-23T22:20:19.161Z,3.90
2018-06-23T22:22:47.672Z,4.27
2018-06-23T22:25:15.734Z,4.10
2018-06-23T22:27:44.438Z,4.37
2018-06-23T22:30:13.052Z,4.47
2018-06-23T22:32:41.154Z,4.20
2018-06-23T22:35:11.600Z,3.67
2018-06-23T22:37:40.866Z,3.87
2018-06-23T22:40:09.418Z,3.87
2018-06-23T22:42:37.589Z,4.13
2018-06-23T22:45:06.758Z,4.30
2018-06-23T22:47:35.669Z,3.73
2018-06-23T22:50:04.229Z,4.10
2018-06-23T22:52:32.606Z,3.93
2018-06-23T22:55:01.026Z,3.90
2018-06-23T22:57:29.450Z,3.87
2018-06-23T22:59:58.154Z,4.00
2018-06-23T23:02:26.346Z,4.13
2018-06-23T23:04:54.757Z,4.00
2018-06-23T23:07:22.889Z,4.00
2018-06-23T23:12:33.594Z,3.80
2018-06-23T23:15:01.754Z,3.63
2018-06-23T23:17:30.793Z,3.53
2018-06-23T23:19:58.936Z,3.60
2018-06-23T23:22:27.915Z,3.37
2018-06-23T23:24:57.754Z,3.67
2018-06-23T23:27:25.870Z,3.40
2018-06-23T23:29:54.131Z,4.00
2018-06-23T23:32:23.117Z,3.90
2018-06-23T23:34:51.681Z,3.73
2018-06-23T23:37:20.142Z,3.53
2018-06-23T23:39:48.625Z,4.37
2018-06-23T23:42:17.865Z,3.10
2018-06-23T23:44:46.452Z,4.37
2018-06-23T23:47:14.572Z,3.70
2018-06-23T23:49:43.977Z,3.87
2018-06-23T23:52:12.985Z,3.73
2018-06-23T23:54:41.909Z,3.57
2018-06-23T23:57:10.432Z,3.53
2018-06-23T23:59:39.157Z,3.80
